Time;durP1;ratioP1;P1;durP2;ratioP2;P2;SDS_P1;SDS_P2;PMS_P1;PMS_P2;Temp;Humidity;BMP_temperature;BMP_pressure;BME280_temperature;BME280_humidity;BME280_pressure;Samples;Min_cycle;Max_cycle;Signal;HPM_P1;HPM_P2
2022/01/05 00:00:18;;;;;;;4.05;2.67;;;;;;;9.07;66.99;94544.88;1790833;80;21009;-61
2022/01/05 00:02:46;;;;;;;2.72;2.27;;;;;;;9.13;67.05;94548.66;1790837;80;20994;-62
2022/01/05 00:05:13;;;;;;;5.50;2.80;;;;;;;9.16;66.70;94541.98;1790852;80;21060;-62
2022/01/05 00:07:39;;;;;;;3.98;2.80;;;;;;;9.17;66.75;94538.45;1791271;80;21060;-62
2022/01/05 00:10:07;;;;;;;2.45;1.72;;;;;;;9.14;66.98;94535.04;1790963;80;21009;-61
2022/01/05 00:12:34;;;;;;;4.25;2.72;;;;;;;9.08;67.52;94540.04;1790982;80;21462;-62
2022/01/05 00:15:00;;;;;;;5.65;2.85;;;;;;;9.05;67.62;94548.03;1791276;80;20989;-61
2022/01/05 00:17:28;;;;;;;3.27;2.70;;;;;;;9.03;67.77;94541.95;1790972;80;21066;-64
2022/01/05 00:19:54;;;;;;;3.62;2.70;;;;;;;9.00;68.24;94545.53;1791127;80;21016;-62
2022/01/05 00:22:21;;;;;;;4.30;2.55;;;;;;;8.98;68.45;94559.17;1790706;80;21018;-62
2022/01/05 00:24:50;;;;;;;3.95;2.95;;;;;;;8.96;68.95;94539.08;1790875;80;22254;-62
2022/01/05 00:27:17;;;;;;;4.23;2.43;;;;;;;8.91;68.96;94536.58;1791141;80;20981;-62
2022/01/05 00:29:43;;;;;;;3.40;2.47;;;;;;;8.86;68.97;94531.91;1791009;80;20988;-62
2022/01/05 00:32:10;;;;;;;4.28;2.72;;;;;;;8.79;70.55;94537.78;1791087;80;21514;-62
2022/01/05 00:34:37;;;;;;;2.87;2.53;;;;;;;8.72;71.82;94527.05;1790702;80;21012;-62
2022/01/05 00:37:04;;;;;;;3.93;2.83;;;;;;;8.67;71.36;94527.64;1791017;80;21582;-62
2022/01/05 00:39:31;;;;;;;3.47;2.50;;;;;;;8.64;71.76;94523.33;1790558;80;20986;-62
2022/01/05 00:42:00;;;;;;;3.15;2.33;;;;;;;8.57;72.92;94524.41;1790681;80;21013;-62
2022/01/05 00:44:26;;;;;;;3.83;2.52;;;;;;;8.50;73.43;94519.36;1790614;80;21044;-62
2022/01/05 00:46:53;;;;;;;4.45;2.55;;;;;;;8.49;73.05;94507.95;1789081;80;20982;-62
2022/01/05 00:49:20;;;;;;;3.47;2.30;;;;;;;8.49;73.37;94507.09;1787593;80;21001;-62
2022/01/05 00:51:48;;;;;;;5.47;2.80;;;;;;;8.43;74.53;94501.11;1787763;80;20980;-62
2022/01/05 00:54:15;;;;;;;3.87;2.50;;;;;;;8.42;74.16;94494.60;1787448;80;21618;-62
2022/01/05 00:56:42;;;;;;;2.35;1.90;;;;;;;8.38;74.35;94501.66;1787530;80;21005;-62
2022/01/05 00:59:10;;;;;;;3.80;2.23;;;;;;;8.29;75.50;94499.30;1787716;80;21448;-61
2022/01/05 01:01:37;;;;;;;2.97;2.10;;;;;;;8.24;76.21;94492.85;1787679;80;20990;-62
2022/01/05 01:04:05;;;;;;;2.27;2.03;;;;;;;8.26;75.90;94495.88;1787718;80;20998;-62
2022/01/05 01:06:32;;;;;;;5.43;2.77;;;;;;;8.28;75.57;94486.19;1787517;80;21009;-61
2022/01/05 01:09:01;;;;;;;5.23;3.00;;;;;;;8.26;76.17;94480.97;1787496;80;21502;-62
2022/01/05 01:11:27;;;;;;;5.80;3.30;;;;;;;8.27;75.66;94480.08;1787151;80;21025;-62
2022/01/05 01:13:54;;;;;;;3.33;2.40;;;;;;;8.26;76.09;94476.17;1787404;80;21040;-62
2022/01/05 01:16:21;;;;;;;3.50;2.40;;;;;;;8.27;76.10;94471.34;1787681;80;21021;-61
2022/01/05 01:18:49;;;;;;;2.57;2.30;;;;;;;8.24;76.60;94462.63;1787691;80;21006;-62
2022/01/05 01:21:16;;;;;;;3.40;2.10;;;;;;;8.25;76.00;94483.20;1787773;80;21044;-62
2022/01/05 01:23:53;;;;;;;2.27;1.83;;;;;;;8.22;76.70;94467.52;1787814;80;20977;-62
2022/01/05 01:26:11;;;;;;;4.60;2.60;;;;;;;8.14;77.60;94461.16;1785423;80;21069;-62
2022/01/05 01:28:38;;;;;;;4.40;2.60;;;;;;;8.10;77.04;94466.08;1787498;80;21009;-62
2022/01/05 01:31:04;;;;;;;4.20;2.63;;;;;;;8.11;77.14;94466.94;1787720;80;21040;-62
2022/01/05 01:33:32;;;;;;;2.67;2.13;;;;;;;8.03;77.81;94460.58;1787584;80;20981;-62
2022/01/05 01:35:59;;;;;;;6.17;2.70;;;;;;;8.00;77.79;94463.30;1787533;80;21341;-62
2022/01/05 01:38:25;;;;;;;2.87;2.20;;;;;;;8.00;78.14;94456.27;1787727;80;21505;-62
2022/01/05 01:40:54;;;;;;;3.50;2.57;;;;;;;7.99;78.09;94462.44;1787465;80;20997;-62
2022/01/05 01:43:21;;;;;;;3.00;2.40;;;;;;;8.00;78.09;94458.04;1787601;80;21081;-62
2022/01/05 01:45:47;;;;;;;3.87;2.13;;;;;;;7.90;79.53;94460.50;1787704;80;21016;-62
2022/01/05 01:48:14;;;;;;;5.60;2.73;;;;;;;7.93;79.13;94453.84;1787640;80;21045;-62
2022/01/05 01:50:41;;;;;;;4.47;3.00;;;;;;;7.89;79.10;94454.39;1787602;80;20997;-62
2022/01/05 01:53:07;;;;;;;4.13;2.50;;;;;;;7.88;79.10;94454.42;1787658;80;20989;-61
2022/01/05 01:55:35;;;;;;;4.30;2.50;;;;;;;7.92;79.18;94456.08;1787797;80;21033;-62
2022/01/05 01:58:05;;;;;;;4.63;2.73;;;;;;;7.92;80.11;94463.50;1787147;80;21033;-61
2022/01/05 02:00:33;;;;;;;3.20;2.50;;;;;;;7.92;79.87;94451.68;1787422;80;21056;-62
2022/01/05 02:02:59;;;;;;;3.00;2.20;;;;;;;7.88;79.97;94448.71;1787456;80;21120;-62
2022/01/05 02:05:26;;;;;;;2.57;2.10;;;;;;;7.86;80.29;94452.28;1787328;80;21061;-62
2022/01/05 02:07:53;;;;;;;4.50;3.03;;;;;;;7.84;80.22;94443.58;1787900;80;21041;-62
2022/01/05 02:10:20;;;;;;;5.17;3.30;;;;;;;7.75;80.61;94447.32;1787181;80;21037;-61
2022/01/05 02:12:47;;;;;;;5.73;3.40;;;;;;;7.75;80.60;94443.38;1787563;80;21010;-62
2022/01/05 02:15:16;;;;;;;6.17;3.60;;;;;;;7.74;80.65;94442.53;1787812;80;21032;-62
2022/01/05 02:18:09;;;;;;;2.30;1.77;;;;;;;7.74;81.01;94445.16;1787699;80;20962;-62
2022/01/05 02:20:28;;;;;;;2.23;1.83;;;;;;;7.76;81.30;94444.67;1784619;80;20989;-61
2022/01/05 02:22:56;;;;;;;2.67;1.87;;;;;;;7.83;81.11;94444.48;1788113;80;20973;-62
2022/01/05 02:25:23;;;;;;;2.40;1.90;;;;;;;7.83;81.14;94430.91;1787567;80;21052;-62
2022/01/05 02:27:56;;;;;;;2.33;1.80;;;;;;;7.88;80.37;94439.52;1787694;80;20997;-61
2022/01/05 02:30:27;;;;;;;1.87;1.67;;;;;;;7.96;79.84;94428.38;1787839;80;21013;-62
2022/01/05 02:32:54;;;;;;;2.03;1.60;;;;;;;8.03;79.69;94432.53;1787349;80;21124;-61
2022/01/05 02:35:22;;;;;;;2.23;1.60;;;;;;;8.11;78.56;94424.90;1787706;80;21036;-62
2022/01/05 02:37:52;;;;;;;2.37;1.80;;;;;;;8.15;77.67;94429.17;1787774;80;20954;-62
2022/01/05 02:40:22;;;;;;;2.47;1.50;;;;;;;8.22;77.80;94424.16;1787954;80;21869;-62
2022/01/05 02:42:55;;;;;;;3.03;2.10;;;;;;;8.28;77.31;94430.55;1787787;80;20995;-62
2022/01/05 02:45:22;;;;;;;2.70;1.72;;;;;;;8.31;77.38;94412.52;1787656;80;20982;-62
2022/01/05 02:47:49;;;;;;;3.60;1.95;;;;;;;8.28;77.12;94427.92;1792933;80;21004;-62
2022/01/05 02:50:16;;;;;;;2.80;2.00;;;;;;;8.28;76.97;94425.29;1796428;80;20957;-62
2022/01/05 02:52:42;;;;;;;2.40;1.70;;;;;;;8.32;77.18;94428.71;1795871;79;21510;-62
2022/01/05 02:55:12;;;;;;;3.50;1.93;;;;;;;8.33;76.84;94434.36;1796294;79;21065;-62
2022/01/05 02:57:39;;;;;;;3.10;1.70;;;;;;;8.31;77.22;94426.97;1796478;80;21395;-62
2022/01/05 03:00:09;;;;;;;2.20;1.85;;;;;;;8.29;76.55;94436.23;1796286;80;21016;-62
2022/01/05 03:02:35;;;;;;;2.10;1.83;;;;;;;8.31;76.35;94433.08;1796539;79;20979;-62
2022/01/05 03:05:05;;;;;;;2.80;1.77;;;;;;;8.32;76.45;94433.97;1796081;80;21013;-62
2022/01/05 03:07:37;;;;;;;3.53;1.97;;;;;;;8.32;76.31;94424.31;1796407;79;20997;-62
2022/01/05 03:10:01;;;;;;;2.60;2.13;;;;;;;8.31;76.29;94428.28;1795876;80;21064;-62
2022/01/05 03:12:30;;;;;;;2.05;1.65;;;;;;;8.26;76.50;94434.98;1796438;80;21466;-62
2022/01/05 03:14:57;;;;;;;2.37;2.00;;;;;;;8.22;76.04;94422.39;1796397;80;20970;-62
2022/01/05 03:17:23;;;;;;;2.87;1.93;;;;;;;8.23;76.30;94429.36;1796447;80;21013;-62
2022/01/05 03:19:50;;;;;;;2.87;2.00;;;;;;;8.22;76.24;94420.22;1796093;80;21033;-61
2022/01/05 03:22:16;;;;;;;3.03;1.80;;;;;;;8.28;75.54;94422.66;1796373;80;20981;-62
2022/01/05 03:24:43;;;;;;;3.97;2.20;;;;;;;8.33;75.29;94412.02;1795985;80;21072;-62
2022/01/05 03:27:09;;;;;;;3.40;2.60;;;;;;;8.31;75.50;94427.83;1796382;79;20969;-61
2022/01/05 03:29:38;;;;;;;4.10;2.30;;;;;;;8.32;75.54;94408.55;1796076;80;21064;-62
2022/01/05 03:32:10;;;;;;;2.57;1.80;;;;;;;8.32;75.58;94416.88;1796216;80;20989;-62
2022/01/05 03:34:38;;;;;;;1.87;1.60;;;;;;;8.28;76.00;94416.55;1796376;79;21482;-62
2022/01/05 03:37:07;;;;;;;2.37;1.63;;;;;;;8.22;76.29;94403.14;1796450;80;21028;-62
2022/01/05 03:39:33;;;;;;;4.63;2.30;;;;;;;8.21;76.18;94415.85;1796090;79;21514;-61
2022/01/05 03:42:00;;;;;;;2.83;2.43;;;;;;;8.21;76.39;94409.28;1796424;79;21005;-61
2022/01/05 03:44:30;;;;;;;2.43;2.10;;;;;;;8.22;76.34;94426.79;1796097;79;20977;-61
2022/01/05 03:46:56;;;;;;;2.90;2.50;;;;;;;8.22;76.19;94415.83;1793890;78;20997;-62
2022/01/05 03:49:23;;;;;;;5.10;2.67;;;;;;;8.20;76.83;94418.94;1777416;80;21064;-62
2022/01/05 03:51:53;;;;;;;2.20;1.70;;;;;;;8.22;76.66;94416.28;1778053;81;21014;-61
2022/01/05 03:54:23;;;;;;;2.67;1.87;;;;;;;8.20;76.21;94425.51;1778067;81;21036;-62
2022/01/05 03:56:49;;;;;;;3.67;2.50;;;;;;;8.23;76.27;94428.05;1777017;81;21031;-61
2022/01/05 03:59:16;;;;;;;3.10;2.07;;;;;;;8.26;76.19;94419.21;1777878;81;20990;-62
2022/01/05 04:01:42;;;;;;;4.83;2.10;;;;;;;8.27;76.21;94422.73;1777849;81;21531;-62
2022/01/05 04:04:09;;;;;;;3.57;1.90;;;;;;;8.27;76.43;94425.36;1777832;80;20958;-61
2022/01/05 04:06:35;;;;;;;2.73;2.43;;;;;;;8.29;76.52;94423.09;1777863;81;21033;-61
2022/01/05 04:09:02;;;;;;;4.37;1.90;;;;;;;8.25;76.52;94416.19;1777636;80;21065;-63
2022/01/05 04:11:28;;;;;;;3.00;2.10;;;;;;;8.26;76.58;94420.98;1777749;80;21001;-62
2022/01/05 04:13:55;;;;;;;2.33;1.90;;;;;;;8.22;76.73;94417.14;1777729;81;21017;-62
2022/01/05 04:16:23;;;;;;;4.37;2.53;;;;;;;8.22;76.97;94415.83;1777498;81;21128;-62
2022/01/05 04:18:50;;;;;;;2.43;2.00;;;;;;;8.19;76.78;94425.58;1778029;80;20982;-62
2022/01/05 04:21:16;;;;;;;3.63;2.20;;;;;;;8.22;76.84;94414.97;1777824;81;21487;-62
2022/01/05 04:23:43;;;;;;;4.00;2.07;;;;;;;8.30;76.49;94416.06;1777762;80;20998;-62
2022/01/05 04:26:09;;;;;;;2.83;2.40;;;;;;;8.31;76.09;94406.80;1777740;81;21017;-62
2022/01/05 04:28:37;;;;;;;3.73;2.40;;;;;;;8.29;76.05;94412.58;1777759;80;20989;-61
2022/01/05 04:31:03;;;;;;;4.87;2.50;;;;;;;8.23;76.21;94399.14;1777799;80;21475;-62
2022/01/05 04:33:30;;;;;;;2.80;2.40;;;;;;;8.21;76.16;94407.55;1777849;80;21078;-62
2022/01/05 04:35:56;;;;;;;3.47;2.43;;;;;;;8.19;76.23;94407.18;1777716;81;21484;-61
2022/01/05 04:38:23;;;;;;;5.13;3.10;;;;;;;8.13;76.41;94415.22;1777756;80;21033;-61
2022/01/05 04:40:51;;;;;;;2.87;2.10;;;;;;;8.10;76.28;94417.48;1777542;81;21041;-62
2022/01/05 04:43:21;;;;;;;3.77;2.67;;;;;;;8.11;76.12;94424.44;1777944;80;20963;-62
2022/01/05 04:45:49;;;;;;;3.43;2.47;;;;;;;8.06;76.64;94428.11;1777538;80;21100;-62
2022/01/05 04:48:18;;;;;;;4.20;2.43;;;;;;;8.02;77.09;94424.26;1777803;80;21020;-62
2022/01/05 04:50:46;;;;;;;4.77;2.70;;;;;;;8.01;76.80;94434.80;1777918;81;21069;-61
2022/01/05 04:53:13;;;;;;;3.53;2.37;;;;;;;8.01;76.67;94431.74;1777658;80;21037;-62
2022/01/05 04:55:41;;;;;;;4.00;2.60;;;;;;;7.98;77.16;94424.38;1777342;81;21044;-62
2022/01/05 04:58:07;;;;;;;4.03;2.10;;;;;;;8.02;77.05;94408.95;1777648;80;21044;-65
2022/01/05 05:00:34;;;;;;;3.20;2.27;;;;;;;8.02;77.01;94424.26;1777507;81;21108;-62
2022/01/05 05:03:01;;;;;;;4.90;2.07;;;;;;;8.05;76.99;94423.77;1777723;81;20986;-61
2022/01/05 05:05:27;;;;;;;3.00;2.00;;;;;;;8.08;76.90;94415.34;1777549;81;22224;-61
2022/01/05 05:07:57;;;;;;;4.47;2.00;;;;;;;8.11;76.80;94420.50;1777757;80;20935;-62
2022/01/05 05:10:25;;;;;;;4.70;2.70;;;;;;;8.11;76.72;94420.50;1777993;80;21041;-62
2022/01/05 05:12:51;;;;;;;6.57;3.47;;;;;;;8.13;76.70;94412.59;1777672;80;21498;-62
2022/01/05 05:15:21;;;;;;;6.60;3.07;;;;;;;8.15;76.92;94424.78;1777534;81;21014;-61
2022/01/05 05:17:50;;;;;;;8.13;3.37;;;;;;;8.14;77.40;94430.06;1777945;81;20994;-61
2022/01/05 05:20:16;;;;;;;4.15;2.37;;;;;;;8.08;77.90;94425.84;1777302;80;21014;-61
2022/01/05 05:22:43;;;;;;;5.57;2.40;;;;;;;8.03;77.70;94418.55;1777671;80;21500;-62
2022/01/05 05:25:10;;;;;;;8.30;4.00;;;;;;;7.96;78.35;94423.55;1777358;80;21041;-62
2022/01/05 05:27:40;;;;;;;3.20;2.40;;;;;;;7.89;78.43;94429.44;1777746;81;20986;-62
2022/01/05 05:30:08;;;;;;;5.03;2.30;;;;;;;7.83;78.49;94426.11;1777450;81;21025;-62
2022/01/05 05:32:34;;;;;;;3.10;2.00;;;;;;;7.75;79.17;94420.60;1777851;80;20974;-62
2022/01/05 05:35:01;;;;;;;4.63;2.63;;;;;;;7.71;79.43;94420.30;1777784;81;20958;-61
2022/01/05 05:37:28;;;;;;;3.07;2.40;;;;;;;7.71;79.94;94419.41;1777673;81;21018;-61
2022/01/05 05:39:58;;;;;;;6.33;3.13;;;;;;;7.69;79.84;94415.53;1777450;80;21026;-61
2022/01/05 05:42:26;;;;;;;4.13;2.50;;;;;;;7.63;79.79;94414.36;1777683;80;20946;-62
2022/01/05 05:44:55;;;;;;;3.53;2.40;;;;;;;7.64;80.68;94421.81;1777896;80;21037;-62
2022/01/05 05:47:22;;;;;;;3.53;2.20;;;;;;;7.63;80.19;94419.61;1777416;80;21478;-62
2022/01/05 05:49:49;;;;;;;3.60;2.53;;;;;;;7.63;80.44;94415.67;1777435;80;21018;-62
2022/01/05 05:52:16;;;;;;;5.17;2.50;;;;;;;7.61;80.10;94421.44;1777918;80;21032;-62
2022/01/05 05:54:43;;;;;;;4.70;3.10;;;;;;;7.63;80.13;94426.17;1777357;80;20986;-62
2022/01/05 05:57:11;;;;;;;3.27;2.60;;;;;;;7.67;80.15;94424.34;1734232;81;21475;-62
2022/01/05 05:59:40;;;;;;;2.87;2.20;;;;;;;7.62;79.95;94419.21;1777487;81;21045;-62
2022/01/05 06:02:07;;;;;;;2.60;2.40;;;;;;;7.61;80.19;94432.36;1777648;80;20967;-61
2022/01/05 06:04:34;;;;;;;3.10;2.33;;;;;;;7.58;80.15;94427.63;1777659;81;21611;-61
2022/01/05 06:07:00;;;;;;;2.90;2.10;;;;;;;7.65;79.53;94425.69;1778177;81;21013;-62
2022/01/05 06:09:27;;;;;;;3.27;2.53;;;;;;;7.61;79.87;94429.31;1778020;81;20995;-61
2022/01/05 06:11:56;;;;;;;3.90;2.73;;;;;;;7.58;80.17;94434.62;1777735;81;20954;-62
2022/01/05 06:14:23;;;;;;;3.47;2.50;;;;;;;7.56;80.40;94436.45;1777695;80;21148;-62
2022/01/05 06:16:52;;;;;;;3.50;2.63;;;;;;;7.53;80.64;94435.19;1777843;80;21519;-61
2022/01/05 06:19:20;;;;;;;10.33;5.10;;;;;;;7.52;80.59;94430.85;1777848;81;21009;-62
2022/01/05 06:21:48;;;;;;;8.53;4.73;;;;;;;7.57;80.31;94435.08;1777835;80;21049;-62
2022/01/05 06:24:15;;;;;;;13.03;6.30;;;;;;;7.64;79.83;94448.06;1777527;81;21105;-62
2022/01/05 06:26:41;;;;;;;11.60;5.23;;;;;;;7.71;79.71;94437.78;1777661;81;21018;-62
2022/01/05 06:29:08;;;;;;;6.17;3.70;;;;;;;7.76;79.89;94445.09;1777590;81;21130;-62
2022/01/05 06:31:35;;;;;;;8.37;5.23;;;;;;;7.80;78.97;94446.75;1777697;81;20990;-62
2022/01/05 06:34:01;;;;;;;22.33;14.27;;;;;;;7.89;78.50;94439.95;1777817;81;21018;-62
2022/01/05 06:36:28;;;;;;;9.43;5.70;;;;;;;7.93;78.61;94436.77;1777526;81;21112;-62
2022/01/05 06:38:54;;;;;;;3.90;2.70;;;;;;;7.91;79.40;94443.41;1777623;80;20990;-62
2022/01/05 06:41:21;;;;;;;17.50;9.37;;;;;;;7.85;79.76;94430.88;1777782;80;21014;-62
2022/01/05 06:43:48;;;;;;;51.27;29.30;;;;;;;7.81;79.68;94437.95;1777413;80;21016;-61
2022/01/05 06:46:14;;;;;;;23.30;13.17;;;;;;;7.82;79.86;94427.88;1777921;81;21002;-62
2022/01/05 06:48:40;;;;;;;162.37;63.23;;;;;;;7.80;80.46;94426.59;1777804;80;21471;-62
2022/01/05 06:51:07;;;;;;;34.17;21.00;;;;;;;7.80;80.08;94425.28;1777260;81;21065;-62
2022/01/05 06:53:37;;;;;;;20.47;12.83;;;;;;;7.83;80.22;94430.91;1777794;80;21018;-62
2022/01/05 06:56:06;;;;;;;12.83;10.10;;;;;;;7.84;79.99;94426.50;1777748;80;21583;-62
2022/01/05 06:58:35;;;;;;;4.37;3.37;;;;;;;7.83;80.13;94426.11;1777655;81;21010;-62
2022/01/05 07:01:02;;;;;;;13.80;10.23;;;;;;;7.82;80.17;94426.56;1777879;81;21534;-61
2022/01/05 07:03:28;;;;;;;5.27;3.70;;;;;;;7.81;80.14;94427.45;1777984;80;20986;-61
2022/01/05 07:05:57;;;;;;;7.00;3.77;;;;;;;7.83;80.72;94426.11;1777650;80;21045;-61
2022/01/05 07:08:23;;;;;;;3.63;2.67;;;;;;;7.84;80.60;94427.39;1777898;81;20986;-61
2022/01/05 07:10:50;;;;;;;6.17;5.07;;;;;;;7.83;80.89;94419.55;1777903;81;21053;-63
2022/01/05 07:13:16;;;;;;;2.33;2.13;;;;;;;7.84;81.50;94413.38;1777562;81;21520;-62
2022/01/05 07:15:43;;;;;;;3.10;2.20;;;;;;;7.84;81.07;94410.75;1778059;80;21128;-62
2022/01/05 07:18:10;;;;;;;12.10;8.00;;;;;;;7.83;81.26;94412.52;1777851;81;21523;-62
2022/01/05 07:20:39;;;;;;;11.60;6.30;;;;;;;7.77;81.93;94409.61;1777962;81;21006;-62
2022/01/05 07:23:06;;;;;;;19.83;9.57;;;;;;;7.71;81.99;94411.53;1777909;80;21464;-62
2022/01/05 07:25:32;;;;;;;20.43;9.00;;;;;;;7.69;82.08;94402.86;1777778;80;20971;-62
2022/01/05 07:28:02;;;;;;;22.83;12.27;;;;;;;7.73;82.33;94405.34;1777882;81;20982;-62
2022/01/05 07:30:29;;;;;;;15.93;7.83;;;;;;;7.75;81.93;94394.34;1777912;80;20966;-62
2022/01/05 07:32:56;;;;;;;17.70;12.07;;;;;;;7.75;82.15;94410.09;1777438;81;21330;-62
2022/01/05 07:35:24;;;;;;;14.83;9.73;;;;;;;7.75;82.51;94411.41;1777511;81;21037;-62
2022/01/05 07:37:54;;;;;;;15.60;9.77;;;;;;;7.74;82.42;94408.39;1777651;80;21018;-62
2022/01/05 07:40:20;;;;;;;28.50;18.40;;;;;;;7.79;82.80;94412.21;1777804;80;20974;-62
2022/01/05 07:42:47;;;;;;;11.70;7.73;;;;;;;7.80;82.88;94412.16;1777749;80;21005;-62
2022/01/05 07:45:15;;;;;;;14.30;9.17;;;;;;;7.76;82.65;94422.77;1777911;81;21034;-62
2022/01/05 07:47:41;;;;;;;12.00;7.33;;;;;;;7.78;82.76;94409.16;1777710;81;21002;-61
2022/01/05 07:50:14;;;;;;;12.97;8.23;;;;;;;7.75;82.68;94410.09;1787008;80;21471;-62
2022/01/05 07:52:38;;;;;;;11.10;6.60;;;;;;;7.75;82.87;94404.84;1787324;80;21025;-62
2022/01/05 07:55:09;;;;;;;5.20;3.20;;;;;;;7.78;82.95;94419.20;1787516;80;21534;-62
2022/01/05 07:57:35;;;;;;;24.00;18.37;;;;;;;7.69;83.17;94414.22;1787664;80;20989;-62
2022/01/05 08:00:08;;;;;;;9.70;6.83;;;;;;;7.70;83.21;94415.92;1787588;80;21009;-62
2022/01/05 08:02:35;;;;;;;8.43;6.42;;;;;;;7.75;83.35;94410.56;1787690;80;20970;-62
2022/01/05 08:05:02;;;;;;;11.33;6.00;;;;;;;7.74;83.30;94407.53;1787760;80;21549;-62
2022/01/05 08:07:31;;;;;;;87.30;63.40;;;;;;;7.76;83.19;94422.34;1787716;80;20978;-61
2022/01/05 08:09:59;;;;;;;10.37;6.23;;;;;;;7.78;83.28;94411.33;1787758;80;21045;-62
2022/01/05 08:12:26;;;;;;;7.17;4.63;;;;;;;7.76;83.37;94411.84;1787792;80;20993;-62
2022/01/05 08:14:52;;;;;;;13.00;7.87;;;;;;;7.79;83.56;94418.32;1787377;80;21013;-61
2022/01/05 08:17:19;;;;;;;6.47;4.77;;;;;;;7.83;83.75;94405.95;1787685;80;21029;-62
2022/01/05 08:19:49;;;;;;;9.53;5.47;;;;;;;7.89;83.41;94406.27;1787712;80;21101;-62
2022/01/05 08:22:15;;;;;;;8.23;5.33;;;;;;;8.02;83.15;94408.95;1786924;80;21479;-62
2022/01/05 08:24:42;;;;;;;6.20;4.63;;;;;;;8.09;83.19;94400.43;1787374;80;21018;-62
2022/01/05 08:27:10;;;;;;;8.77;3.87;;;;;;;8.11;83.04;94399.94;1787659;80;20954;-62
2022/01/05 08:29:37;;;;;;;5.50;3.87;;;;;;;8.08;83.05;94398.27;1787815;80;21001;-62
2022/01/05 08:32:05;;;;;;;5.27;4.27;;;;;;;8.13;83.53;94402.08;1787998;80;21037;-62
2022/01/05 08:34:35;;;;;;;5.17;3.57;;;;;;;8.18;83.54;94402.35;1787670;80;21531;-62
2022/01/05 08:37:03;;;;;;;6.33;4.10;;;;;;;8.24;83.59;94405.28;1787606;80;21033;-62
2022/01/05 08:39:29;;;;;;;4.83;4.00;;;;;;;8.39;83.54;94390.80;1787813;80;21519;-62
2022/01/05 08:41:57;;;;;;;2.73;2.43;;;;;;;8.46;83.50;94405.53;1787821;80;21025;-63
2022/01/05 08:44:24;;;;;;;6.80;4.43;;;;;;;8.57;83.43;94393.41;1787612;80;21022;-61
2022/01/05 08:46:50;;;;;;;10.30;5.83;;;;;;;8.68;82.85;94400.95;1787330;80;21060;-62
2022/01/05 08:49:17;;;;;;;23.50;12.18;;;;;;;8.74;82.43;94395.50;1787719;80;21044;-61
2022/01/05 08:51:43;;;;;;;14.90;8.50;;;;;;;8.86;81.50;94382.83;1787460;80;21025;-62
2022/01/05 08:54:10;;;;;;;10.07;6.30;;;;;;;8.97;82.12;94378.56;1787829;80;21064;-61
2022/01/05 08:56:38;;;;;;;6.92;4.47;;;;;;;9.05;81.93;94382.27;1787398;80;21068;-61
2022/01/05 08:59:04;;;;;;;9.95;5.70;;;;;;;9.06;79.38;94359.83;1786990;80;21014;-62
2022/01/05 09:01:31;;;;;;;11.35;8.88;;;;;;;9.15;79.92;94373.16;1787373;80;21017;-61
2022/01/05 09:03:57;;;;;;;7.45;5.17;;;;;;;9.18;78.24;94359.89;1787632;80;21028;-61
2022/01/05 09:06:24;;;;;;;7.53;4.65;;;;;;;9.21;78.88;94368.14;1787744;80;21032;-61
2022/01/05 09:08:50;;;;;;;4.22;2.60;;;;;;;9.29;77.89;94364.33;1787712;80;21013;-61
2022/01/05 09:11:17;;;;;;;3.35;2.50;;;;;;;9.46;74.46;94355.02;1787523;80;20986;-61
2022/01/05 09:13:48;;;;;;;4.78;3.58;;;;;;;9.72;74.44;94354.11;1787488;80;20978;-61
2022/01/05 09:16:14;;;;;;;3.35;2.27;;;;;;;9.90;74.91;94349.53;1787625;80;21467;-61
2022/01/05 09:18:41;;;;;;;4.87;3.58;;;;;;;10.13;70.12;94347.80;1787693;80;20966;-62
2022/01/05 09:21:08;;;;;;;6.95;2.70;;;;;;;10.29;73.18;94350.32;1787613;80;21019;-62
2022/01/05 09:23:36;;;;;;;5.87;3.30;;;;;;;10.48;72.50;94346.55;1787466;80;20978;-62
2022/01/05 09:26:03;;;;;;;4.17;2.50;;;;;;;10.66;71.02;94343.66;1787663;80;21479;-61
2022/01/05 09:28:29;;;;;;;3.50;2.60;;;;;;;10.83;69.58;94342.97;1787481;80;21055;-61
2022/01/05 09:30:59;;;;;;;4.28;2.67;;;;;;;11.03;70.17;94323.70;1787699;80;20966;-61
2022/01/05 09:33:25;;;;;;;3.55;1.95;;;;;;;11.16;65.29;94336.81;1787621;80;20993;-61
2022/01/05 09:36:01;;;;;;;6.40;3.90;;;;;;;11.23;63.20;94332.13;1787799;80;21009;-61
2022/01/05 09:41:56;;;;;;;4.20;2.95;;;;;;;11.31;63.83;94335.30;1785226;80;21041;-61
2022/01/05 09:43:56;;;;;;;5.25;3.67;;;;;;;11.52;64.11;94316.86;1787831;80;20981;-61
2022/01/05 09:46:44;;;;;;;4.03;2.45;;;;;;;11.61;63.70;94315.13;1787654;80;21488;-62
2022/01/05 09:49:25;;;;;;;4.40;2.02;;;;;;;11.72;63.41;94322.58;1785168;80;21072;-62
2022/01/05 09:51:56;;;;;;;4.17;2.17;;;;;;;11.87;62.00;94316.69;1787424;80;21452;-62
2022/01/05 09:54:23;;;;;;;3.55;2.40;;;;;;;11.93;60.49;94313.76;1787632;80;21046;-63
2022/01/05 09:56:51;;;;;;;2.58;2.08;;;;;;;12.17;62.24;94315.78;1787522;80;21017;-68
2022/01/05 09:59:18;;;;;;;3.85;2.40;;;;;;;12.41;60.31;94311.14;1787600;80;21472;-62
2022/01/05 10:01:45;;;;;;;6.95;3.30;;;;;;;12.67;56.71;94294.50;1787425;80;21001;-64
2022/01/05 10:04:14;;;;;;;3.92;2.12;;;;;;;13.04;58.19;94308.63;1787736;80;21044;-63
2022/01/05 10:06:43;;;;;;;4.65;2.27;;;;;;;13.85;59.59;94293.48;1787647;80;21532;-63
2022/01/05 10:09:09;;;;;;;2.98;2.30;;;;;;;14.39;58.36;94297.28;1787521;80;21531;-64
2022/01/05 10:11:39;;;;;;;3.20;1.87;;;;;;;14.39;58.36;94297.28;1787863;80;21013;-64
2022/01/05 10:14:06;;;;;;;2.12;1.90;;;;;;;14.74;53.30;94303.83;1787428;80;21001;-63
2022/01/05 10:16:33;;;;;;;3.50;2.77;;;;;;;14.85;51.53;94309.38;1787648;80;21068;-63
2022/01/05 10:19:00;;;;;;;3.85;2.30;;;;;;;15.00;51.49;94306.34;1787704;80;20982;-63
2022/01/05 10:21:36;;;;;;;3.27;1.87;;;;;;;15.22;52.61;94304.66;1787571;80;20997;-63
2022/01/05 10:24:04;;;;;;;3.37;1.82;;;;;;;15.24;50.40;94297.91;1787645;80;20993;-64
2022/01/05 10:26:39;;;;;;;4.17;1.55;;;;;;;15.04;51.03;94302.55;1787477;80;20978;-63
2022/01/05 10:29:17;;;;;;;4.75;1.70;;;;;;;15.20;51.59;94311.01;1787321;80;21001;-63
2022/01/05 10:31:47;;;;;;;3.08;1.87;;;;;;;15.05;49.54;94302.95;1787759;80;21074;-63
2022/01/05 10:34:27;;;;;;;4.25;2.12;;;;;;;14.77;50.55;94294.84;1787188;80;21546;-63
2022/01/05 10:36:57;;;;;;;2.65;2.00;;;;;;;14.77;50.00;94290.85;1787533;80;21523;-63
2022/01/05 10:39:33;;;;;;;4.03;1.55;;;;;;;14.52;52.39;94306.77;1787628;80;20985;-63
2022/01/05 10:42:13;;;;;;;4.80;2.40;;;;;;;14.67;51.84;94317.91;1787395;80;20994;-65
2022/01/05 10:44:43;;;;;;;4.15;2.22;;;;;;;14.39;51.40;94305.69;1786028;80;20998;-63
2022/01/05 10:47:14;;;;;;;3.52;2.35;;;;;;;14.80;53.37;94296.84;1787956;80;20997;-63
2022/01/05 10:49:41;;;;;;;4.17;2.50;;;;;;;15.26;53.25;94294.70;1787582;80;20989;-63
2022/01/05 10:52:33;;;;;;;3.58;2.00;;;;;;;15.46;50.10;94286.91;1787836;80;20966;-64
2022/01/05 10:55:13;;;;;;;4.75;3.12;;;;;;;15.49;49.74;94278.26;1787941;80;21013;-64
2022/01/05 10:58:02;;;;;;;10.40;7.80;;;;;;;15.88;50.80;94290.19;1787531;80;21487;-63
2022/01/05 11:00:46;;;;;;;3.45;2.83;;;;;;;16.04;49.57;94275.95;1788333;80;21423;-63
2022/01/05 11:03:33;;;;;;;5.03;3.08;;;;;;;16.45;49.38;94274.71;1787741;80;21036;-63
2022/01/05 11:06:17;;;;;;;2.30;2.02;;;;;;;16.45;46.60;94273.38;1787729;80;21010;-63
2022/01/05 11:08:58;;;;;;;3.37;3.02;;;;;;;16.51;45.57;94270.35;1787916;80;21005;-63
2022/01/05 11:11:35;;;;;;;3.02;2.50;;;;;;;16.71;45.62;94275.75;1787652;80;21006;-63
2022/01/05 11:14:09;;;;;;;2.85;2.40;;;;;;;16.96;44.94;94263.08;1787822;80;21020;-63
2022/01/05 11:16:38;;;;;;;2.83;2.25;;;;;;;16.94;45.13;94263.65;1787795;80;21021;-63
2022/01/05 11:19:29;;;;;;;4.05;2.08;;;;;;;17.17;45.22;94258.15;1787651;80;21523;-64
2022/01/05 11:22:17;;;;;;;3.22;2.92;;;;;;;17.41;43.64;94255.69;1787714;80;21041;-63
2022/01/05 11:24:52;;;;;;;2.70;2.45;;;;;;;17.25;43.69;94261.64;1787740;80;20981;-63
2022/01/05 11:27:26;;;;;;;4.40;2.70;;;;;;;17.22;45.18;94257.84;1787835;80;21012;-63
2022/01/05 11:29:56;;;;;;;4.20;2.80;;;;;;;17.32;44.85;94249.62;1787775;80;21013;-63
2022/01/05 11:32:27;;;;;;;4.85;3.42;;;;;;;17.71;42.90;94252.77;1787619;80;21519;-64
2022/01/05 11:34:54;;;;;;;2.50;2.30;;;;;;;18.09;41.84;94242.64;1787752;80;21463;-65
2022/01/05 11:37:21;;;;;;;2.62;1.82;;;;;;;17.99;42.17;94250.88;1787756;80;21044;-63
2022/01/05 11:39:52;;;;;;;2.52;1.70;;;;;;;17.68;42.29;94252.10;1787639;80;21025;-64
2022/01/05 11:42:29;;;;;;;3.00;2.27;;;;;;;17.52;41.50;94242.47;1785219;80;21007;-63
2022/01/05 11:44:57;;;;;;;6.00;2.98;;;;;;;17.50;42.12;94247.53;1787735;80;21471;-64
2022/01/05 11:47:28;;;;;;;2.67;2.27;;;;;;;17.74;42.97;94244.55;1787561;80;20970;-64